Time;durP1;ratioP1;P1;durP2;ratioP2;P2;SDS_P1;SDS_P2;PMS_P1;PMS_P2;Temp;Humidity;BMP_temperature;BMP_pressure;BME280_temperature;BME280_humidity;BME280_pressure;Samples;Min_cycle;Max_cycle;Signal;HPM_P1;HPM_P2
2021/09/16 00:00:46;;;;;;;11.38;9.63;;;18.10;99.90;;;;;;2631077;54;20576;-80
2021/09/16 00:03:15;;;;;;;9.88;8.70;;;18.20;99.90;;;;;;2630747;54;20153;-78
2021/09/16 00:05:46;;;;;;;10.30;9.38;;;18.10;99.90;;;;;;2630898;47;20152;-81
2021/09/16 00:08:15;;;;;;;9.75;7.90;;;17.90;99.90;;;;;;2630935;54;20161;-81
2021/09/16 00:10:44;;;;;;;9.13;8.07;;;18.00;99.90;;;;;;2631152;47;20153;-80
2021/09/16 00:13:12;;;;;;;8.02;7.22;;;17.90;99.90;;;;;;2630933;54;20141;-78
2021/09/16 00:15:41;;;;;;;6.95;6.35;;;17.90;99.90;;;;;;2630983;54;20140;-80
2021/09/16 00:18:10;;;;;;;8.65;7.63;;;17.80;99.90;;;;;;2630889;54;20173;-81
2021/09/16 00:20:39;;;;;;;7.32;6.63;;;18.00;99.90;;;;;;2630861;54;20157;-79
2021/09/16 00:23:10;;;;;;;7.57;6.88;;;18.00;99.90;;;;;;2631053;47;20718;-80
2021/09/16 00:25:39;;;;;;;6.10;5.50;;;18.20;99.90;;;;;;2631065;47;20130;-80
2021/09/16 00:28:08;;;;;;;6.38;5.75;;;18.10;99.90;;;;;;2630848;47;20165;-79
2021/09/16 00:30:37;;;;;;;6.82;5.80;;;18.10;99.90;;;;;;2630541;54;20149;-80
2021/09/16 00:33:05;;;;;;;9.27;5.43;;;18.00;99.90;;;;;;2630605;47;20156;-79
2021/09/16 00:35:34;;;;;;;7.15;5.95;;;17.90;99.90;;;;;;2630663;54;20130;-80
2021/09/16 00:38:03;;;;;;;8.73;6.10;;;17.90;99.90;;;;;;2633491;39;20637;-80
2021/09/16 00:40:35;;;;;;;6.55;5.03;;;18.00;99.90;;;;;;2630846;47;20144;-80
2021/09/16 00:43:04;;;;;;;8.75;4.72;;;17.90;99.90;;;;;;2630937;47;20152;-80
2021/09/16 00:45:33;;;;;;;4.95;4.53;;;17.80;99.90;;;;;;2630579;47;20156;-80
2021/09/16 00:48:01;;;;;;;6.07;4.38;;;18.00;99.90;;;;;;2630763;54;20244;-80
2021/09/16 00:50:30;;;;;;;5.70;5.03;;;18.00;99.90;;;;;;2630863;54;20161;-78
2021/09/16 00:53:02;;;;;;;5.88;5.28;;;18.00;99.90;;;;;;2630943;46;20144;-80
2021/09/16 00:55:34;;;;;;;5.85;4.40;;;17.90;99.90;;;;;;2630310;47;20153;-79
2021/09/16 00:58:05;;;;;;;6.80;5.07;;;17.90;99.90;;;;;;2630888;54;20161;-80
2021/09/16 01:00:36;;;;;;;6.30;4.75;;;18.00;99.90;;;;;;2630858;46;20154;-79
2021/09/16 01:03:04;;;;;;;6.25;5.45;;;18.00;99.90;;;;;;2631021;54;20209;-79
2021/09/16 01:05:33;;;;;;;3.60;3.10;;;18.10;99.90;;;;;;2630225;54;20160;-79
2021/09/16 01:08:02;;;;;;;6.78;3.92;;;18.00;99.90;;;;;;2630716;47;20160;-78
2021/09/16 01:10:35;;;;;;;7.88;3.05;;;17.90;99.90;;;;;;2630554;54;20156;-79
2021/09/16 01:13:03;;;;;;;4.47;3.05;;;17.70;99.90;;;;;;2630540;47;20213;-79
2021/09/16 01:15:32;;;;;;;5.80;3.25;;;17.70;99.90;;;;;;2630498;54;20134;-80
2021/09/16 01:18:01;;;;;;;5.93;4.03;;;17.80;99.90;;;;;;2630720;47;20153;-79
2021/09/16 01:20:30;;;;;;;5.70;3.28;;;17.60;99.90;;;;;;2630565;47;20151;-82
2021/09/16 01:23:01;;;;;;;6.40;3.20;;;17.60;99.90;;;;;;2630764;54;20156;-81
2021/09/16 01:25:31;;;;;;;3.65;3.17;;;17.60;99.90;;;;;;2630499;54;20847;-80
2021/09/16 01:28:02;;;;;;;7.80;3.05;;;17.60;99.90;;;;;;2630774;47;20160;-81
2021/09/16 01:30:31;;;;;;;4.43;3.10;;;17.70;99.90;;;;;;2630725;54;20145;-80
2021/09/16 01:33:01;;;;;;;5.43;3.15;;;17.70;99.90;;;;;;2630638;54;20152;-79
2021/09/16 01:35:31;;;;;;;5.10;2.97;;;17.70;99.90;;;;;;2634957;39;20503;-79
2021/09/16 01:38:02;;;;;;;5.97;2.80;;;17.70;99.90;;;;;;2630352;47;20184;-79
2021/09/16 01:40:31;;;;;;;6.82;2.90;;;17.60;99.90;;;;;;2630675;54;20153;-79
2021/09/16 01:43:00;;;;;;;5.63;2.28;;;17.60;99.90;;;;;;2630701;47;20149;-80
2021/09/16 01:45:30;;;;;;;7.18;2.60;;;17.50;99.90;;;;;;2631291;46;20177;-80
2021/09/16 01:47:59;;;;;;;2.88;2.65;;;17.40;99.90;;;;;;2631233;47;20224;-79
2021/09/16 01:50:29;;;;;;;3.40;2.40;;;17.60;99.90;;;;;;2631427;47;20149;-79
2021/09/16 01:52:57;;;;;;;6.60;3.03;;;17.50;99.90;;;;;;2631078;46;20173;-80
2021/09/16 01:55:29;;;;;;;3.28;2.35;;;17.60;99.90;;;;;;2631001;54;20951;-79
2021/09/16 01:57:57;;;;;;;3.92;2.47;;;17.50;99.90;;;;;;2631093;54;20167;-78
2021/09/16 02:00:26;;;;;;;2.03;1.67;;;17.40;99.90;;;;;;2630774;54;20172;-78
2021/09/16 02:02:55;;;;;;;4.65;1.40;;;17.30;99.90;;;;;;2630997;54;20149;-80
2021/09/16 02:05:23;;;;;;;4.60;1.98;;;17.20;99.90;;;;;;2630936;54;20140;-80
2021/09/16 02:07:52;;;;;;;3.67;1.67;;;17.30;99.90;;;;;;2630896;46;20177;-77
2021/09/16 02:10:21;;;;;;;5.30;1.67;;;17.20;99.90;;;;;;2631095;54;20146;-80
2021/09/16 02:12:52;;;;;;;2.25;1.45;;;16.90;99.90;;;;;;2629657;54;20168;-79
2021/09/16 02:15:21;;;;;;;7.07;2.08;;;16.80;99.90;;;;;;2630297;54;20149;-79
2021/09/16 02:17:49;;;;;;;5.07;2.03;;;16.70;99.90;;;;;;2631069;46;20907;-78
2021/09/16 02:20:18;;;;;;;4.30;1.67;;;16.60;99.90;;;;;;2630827;47;20126;-79
2021/09/16 02:22:47;;;;;;;2.15;1.27;;;16.70;99.90;;;;;;2631073;54;20137;-78
2021/09/16 02:25:16;;;;;;;3.13;1.42;;;16.80;99.90;;;;;;2630295;46;20149;-78
2021/09/16 02:27:45;;;;;;;5.20;1.77;;;16.70;99.90;;;;;;2631005;47;20745;-80
2021/09/16 02:30:16;;;;;;;4.20;1.30;;;16.70;99.90;;;;;;2631148;54;20130;-79
2021/09/16 02:32:45;;;;;;;4.32;2.00;;;16.70;99.90;;;;;;2629576;47;20134;-78
2021/09/16 02:35:14;;;;;;;2.95;1.13;;;16.80;99.90;;;;;;2630367;47;20157;-78
2021/09/16 02:37:44;;;;;;;3.08;1.80;;;16.70;99.90;;;;;;2630862;47;20180;-78
2021/09/16 02:40:14;;;;;;;2.47;1.33;;;16.50;99.90;;;;;;2631334;47;20179;-79
2021/09/16 02:42:43;;;;;;;1.67;1.20;;;16.60;99.90;;;;;;2631157;47;20156;-80
2021/09/16 02:45:13;;;;;;;2.58;1.33;;;16.70;99.90;;;;;;2630433;47;20149;-77
2021/09/16 02:47:44;;;;;;;2.78;1.58;;;16.60;99.90;;;;;;2630990;46;20181;-79
2021/09/16 02:50:13;;;;;;;3.25;1.20;;;16.60;99.90;;;;;;2631031;54;20142;-80
2021/09/16 02:52:42;;;;;;;2.65;1.67;;;16.50;99.90;;;;;;2630905;47;20146;-80
2021/09/16 02:55:12;;;;;;;3.40;1.20;;;16.50;99.90;;;;;;2630732;54;20155;-81
2021/09/16 02:57:41;;;;;;;3.72;1.40;;;16.60;99.90;;;;;;2631121;47;20153;-80
2021/09/16 03:00:11;;;;;;;1.27;0.95;;;16.50;99.90;;;;;;2631159;54;20152;-80
2021/09/16 03:02:40;;;;;;;2.28;1.25;;;16.50;99.90;;;;;;2631114;54;20150;-80
2021/09/16 03:05:12;;;;;;;2.40;1.30;;;16.50;99.90;;;;;;2630837;47;20142;-80
2021/09/16 03:07:41;;;;;;;2.95;1.15;;;16.50;99.90;;;;;;2631249;46;20176;-79
2021/09/16 03:10:12;;;;;;;3.45;1.35;;;16.50;99.90;;;;;;2631103;54;20148;-79
2021/09/16 03:12:41;;;;;;;2.95;1.20;;;16.70;99.90;;;;;;2631153;54;20160;-80
2021/09/16 03:15:11;;;;;;;3.35;1.10;;;16.50;99.90;;;;;;2630739;54;20209;-80
2021/09/16 03:17:41;;;;;;;2.05;1.08;;;16.40;99.90;;;;;;2631191;54;20999;-80
2021/09/16 03:20:14;;;;;;;2.78;1.13;;;16.30;99.90;;;;;;2631265;54;20137;-81
2021/09/16 03:22:43;;;;;;;2.53;1.00;;;16.40;99.90;;;;;;2631226;46;20194;-80
2021/09/16 03:25:13;;;;;;;5.45;0.90;;;16.30;99.90;;;;;;2631000;54;20164;-80
2021/09/16 03:27:42;;;;;;;1.08;0.82;;;16.20;99.90;;;;;;2631007;54;20177;-80
2021/09/16 03:30:14;;;;;;;2.22;1.10;;;16.20;99.90;;;;;;2631130;54;20133;-80
2021/09/16 03:32:43;;;;;;;1.75;1.10;;;16.30;99.90;;;;;;2630649;47;20768;-79
2021/09/16 03:35:14;;;;;;;2.58;1.20;;;16.20;99.90;;;;;;2630991;54;20136;-80
2021/09/16 03:37:43;;;;;;;4.15;1.02;;;16.10;99.90;;;;;;2631073;47;20169;-80
2021/09/16 03:40:13;;;;;;;5.13;1.80;;;16.00;99.90;;;;;;2630855;54;20129;-79
2021/09/16 03:42:42;;;;;;;2.60;1.58;;;16.00;99.90;;;;;;2631222;53;20137;-80
2021/09/16 03:45:12;;;;;;;2.22;1.60;;;16.00;99.90;;;;;;2630900;46;20153;-81
2021/09/16 03:47:43;;;;;;;3.50;1.00;;;16.10;99.90;;;;;;2630895;47;20164;-81
2021/09/16 03:50:15;;;;;;;2.03;0.80;;;16.10;99.90;;;;;;2630833;46;20133;-79
2021/09/16 03:52:44;;;;;;;5.00;2.15;;;16.20;99.90;;;;;;2630571;54;20152;-79
2021/09/16 03:55:13;;;;;;;2.85;0.80;;;16.10;99.90;;;;;;2630713;54;20145;-80
2021/09/16 03:57:42;;;;;;;3.55;1.23;;;16.10;99.90;;;;;;2630840;54;20169;-81
2021/09/16 04:00:13;;;;;;;2.55;1.23;;;16.00;99.90;;;;;;2630659;54;20201;-79
2021/09/16 04:02:41;;;;;;;2.60;1.00;;;16.00;99.90;;;;;;2631018;47;20255;-79
2021/09/16 04:05:11;;;;;;;3.20;1.25;;;16.00;99.90;;;;;;2630588;47;20141;-80
2021/09/16 04:07:43;;;;;;;2.08;1.00;;;16.00;99.90;;;;;;2629650;47;20219;-75
2021/09/16 04:10:13;;;;;;;3.17;0.90;;;16.00;99.90;;;;;;2629728;47;20785;-77
2021/09/16 04:12:42;;;;;;;4.63;1.33;;;16.00;99.90;;;;;;2630713;47;20133;-76
2021/09/16 04:15:13;;;;;;;3.95;1.38;;;16.10;99.90;;;;;;2630067;47;20201;-76
2021/09/16 04:17:41;;;;;;;1.27;0.70;;;16.10;99.90;;;;;;2622629;54;20171;-76
2021/09/16 04:20:11;;;;;;;2.70;1.17;;;16.10;99.90;;;;;;2625866;54;20146;-75
2021/09/16 04:22:43;;;;;;;2.75;0.95;;;16.10;99.90;;;;;;2623221;54;20159;-75
2021/09/16 04:25:12;;;;;;;4.78;1.02;;;16.00;99.90;;;;;;2621673;54;20156;-75
2021/09/16 04:27:41;;;;;;;1.33;0.70;;;16.00;99.90;;;;;;2620613;47;20173;-74
2021/09/16 04:30:11;;;;;;;2.80;1.15;;;16.10;99.90;;;;;;2625836;39;20590;-76
2021/09/16 04:32:40;;;;;;;3.45;0.93;;;16.10;99.90;;;;;;2623521;54;20160;-75
2021/09/16 04:35:10;;;;;;;2.58;1.02;;;15.90;99.90;;;;;;2624859;54;20153;-75
2021/09/16 04:37:39;;;;;;;4.97;1.02;;;15.90;99.90;;;;;;2626454;54;20149;-74
2021/09/16 04:40:11;;;;;;;5.55;1.40;;;15.90;99.90;;;;;;2622922;54;20145;-75
2021/09/16 04:42:40;;;;;;;1.10;0.63;;;15.90;99.90;;;;;;2630183;46;20647;-76
2021/09/16 04:45:10;;;;;;;5.18;1.80;;;15.70;99.90;;;;;;2629289;47;20169;-76
2021/09/16 04:47:40;;;;;;;2.45;1.23;;;15.70;99.90;;;;;;2625765;54;20700;-75
2021/09/16 04:50:10;;;;;;;1.95;1.38;;;15.70;99.90;;;;;;2623666;46;20225;-75
2021/09/16 04:52:39;;;;;;;1.38;1.27;;;15.80;99.90;;;;;;2622421;47;20746;-76
2021/09/16 04:55:11;;;;;;;7.53;1.60;;;15.70;99.90;;;;;;2619838;54;20698;-74
2021/09/16 04:57:41;;;;;;;3.10;0.90;;;15.80;99.90;;;;;;2623059;54;20157;-74
2021/09/16 05:00:10;;;;;;;1.65;0.85;;;15.70;99.90;;;;;;2624239;46;20218;-76
2021/09/16 05:02:39;;;;;;;2.17;0.88;;;15.70;99.90;;;;;;2623851;54;20141;-76
2021/09/16 05:05:11;;;;;;;3.90;1.20;;;15.70;99.90;;;;;;2623716;54;20137;-75
2021/09/16 05:07:40;;;;;;;2.08;1.15;;;15.80;99.90;;;;;;2622542;47;20195;-75
2021/09/16 05:10:12;;;;;;;3.22;1.33;;;15.70;99.90;;;;;;2623390;47;20150;-75
2021/09/16 05:12:41;;;;;;;4.05;1.45;;;15.80;99.90;;;;;;2623135;54;20697;-75
2021/09/16 05:15:11;;;;;;;2.50;1.10;;;15.70;99.90;;;;;;2623788;47;20172;-75
2021/09/16 05:17:40;;;;;;;1.85;1.30;;;15.80;99.90;;;;;;2622587;54;20146;-77
2021/09/16 05:20:09;;;;;;;1.20;1.02;;;15.90;99.90;;;;;;2623138;39;20606;-75
2021/09/16 05:22:38;;;;;;;1.45;1.17;;;16.00;99.90;;;;;;2622455;47;20149;-74
2021/09/16 05:25:08;;;;;;;2.72;1.02;;;16.00;99.90;;;;;;2626429;47;20284;-75
2021/09/16 05:27:39;;;;;;;5.07;1.48;;;15.90;99.90;;;;;;2624969;54;20149;-73
2021/09/16 05:30:09;;;;;;;2.22;1.15;;;15.80;99.90;;;;;;2625009;47;20149;-75
2021/09/16 05:32:40;;;;;;;2.25;1.30;;;15.80;99.90;;;;;;2626074;54;20744;-75
2021/09/16 05:35:16;;;;;;;2.58;2.03;;;15.80;99.90;;;;;;2624886;54;20152;-76
2021/09/16 05:37:45;;;;;;;1.90;1.50;;;15.80;99.90;;;;;;2622256;54;20152;-75
2021/09/16 05:40:16;;;;;;;2.53;1.27;;;15.90;99.90;;;;;;2622808;54;20149;-76
2021/09/16 05:42:47;;;;;;;3.90;1.63;;;15.90;99.90;;;;;;2627473;46;20160;-76
2021/09/16 05:45:16;;;;;;;2.45;1.35;;;15.90;99.90;;;;;;2623697;47;20157;-76
2021/09/16 05:47:45;;;;;;;4.40;1.38;;;15.90;99.90;;;;;;2623977;54;20164;-77
2021/09/16 05:50:14;;;;;;;3.90;1.20;;;15.90;99.90;;;;;;2625848;54;20138;-77
2021/09/16 05:52:43;;;;;;;2.65;1.35;;;15.90;99.90;;;;;;2623721;54;20164;-76
2021/09/16 05:55:13;;;;;;;2.08;1.30;;;16.00;99.90;;;;;;2625885;54;20133;-78
2021/09/16 05:57:42;;;;;;;2.95;1.48;;;16.00;99.90;;;;;;2628006;46;20183;-75
2021/09/16 06:00:14;;;;;;;3.17;1.10;;;15.90;99.90;;;;;;2625059;47;20176;-76
2021/09/16 06:02:43;;;;;;;2.92;1.58;;;15.80;99.90;;;;;;2623963;54;20172;-77
2021/09/16 06:05:12;;;;;;;1.88;1.30;;;15.90;99.90;;;;;;2625097;54;20149;-78
2021/09/16 06:07:41;;;;;;;4.68;1.55;;;16.00;99.90;;;;;;2625817;54;20169;-75
2021/09/16 06:10:11;;;;;;;2.75;1.25;;;15.90;99.90;;;;;;2625273;47;20162;-75
2021/09/16 06:13:19;;;;;;;4.63;2.13;;;16.00;99.90;;;;;;2625844;47;20149;-75
2021/09/16 06:15:55;;;;;;;3.58;1.23;;;15.90;99.90;;;;;;2628950;39;20659;-75
2021/09/16 06:18:26;;;;;;;5.00;1.50;;;15.80;99.90;;;;;;2625585;54;20199;-76
2021/09/16 06:20:56;;;;;;;2.85;1.40;;;15.90;99.90;;;;;;2626443;46;20165;-76
2021/09/16 06:23:25;;;;;;;3.25;1.30;;;16.10;99.90;;;;;;2623003;54;20161;-76
2021/09/16 06:25:54;;;;;;;2.25;1.20;;;16.20;99.90;;;;;;2624740;54;20151;-76
2021/09/16 06:28:23;;;;;;;3.78;1.42;;;16.20;99.90;;;;;;2624688;47;20189;-76
2021/09/16 06:30:54;;;;;;;4.05;1.23;;;16.20;99.90;;;;;;2623350;47;20161;-76
2021/09/16 06:33:23;;;;;;;4.15;1.30;;;16.30;99.90;;;;;;2625135;47;20675;-77
2021/09/16 06:35:52;;;;;;;5.47;1.60;;;16.40;99.90;;;;;;2623886;47;20692;-77
2021/09/16 06:38:21;;;;;;;2.78;1.77;;;16.30;99.90;;;;;;2627136;47;20203;-76
2021/09/16 06:40:52;;;;;;;5.30;1.33;;;16.30;99.90;;;;;;2624808;39;20574;-76
2021/09/16 06:43:21;;;;;;;5.53;0.82;;;16.20;99.90;;;;;;2627002;54;20188;-76
2021/09/16 06:45:50;;;;;;;4.88;1.58;;;16.10;99.90;;;;;;2629107;39;20657;-74
2021/09/16 06:48:21;;;;;;;6.07;1.67;;;16.10;99.90;;;;;;2624115;54;20730;-76
2021/09/16 06:50:54;;;;;;;1.83;1.40;;;16.30;99.90;;;;;;2624890;47;20682;-76
2021/09/16 06:53:22;;;;;;;1.88;1.40;;;16.40;99.90;;;;;;2626404;54;20161;-75
2021/09/16 06:55:51;;;;;;;5.15;1.35;;;16.40;99.90;;;;;;2623821;47;20141;-75
2021/09/16 06:58:20;;;;;;;3.90;1.10;;;16.60;99.90;;;;;;2624475;47;20183;-74
2021/09/16 07:00:49;;;;;;;2.92;1.25;;;16.50;99.90;;;;;;2635428;39;20743;-76
2021/09/16 07:03:20;;;;;;;3.55;0.80;;;16.50;99.90;;;;;;2628148;54;20184;-76
2021/09/16 07:05:49;;;;;;;5.47;1.88;;;16.60;99.90;;;;;;2629907;54;20165;-81
2021/09/16 07:08:18;;;;;;;1.65;1.50;;;16.70;99.90;;;;;;2630759;54;20188;-78
2021/09/16 07:10:47;;;;;;;3.40;0.98;;;16.60;99.90;;;;;;2631141;47;20145;-78
2021/09/16 07:13:17;;;;;;;5.43;1.73;;;16.60;99.90;;;;;;2630962;54;20145;-77
2021/09/16 07:15:46;;;;;;;3.25;1.40;;;16.50;99.90;;;;;;2630966;47;20149;-79
2021/09/16 07:18:15;;;;;;;4.60;1.92;;;16.60;99.90;;;;;;2630979;47;20706;-78
2021/09/16 07:20:46;;;;;;;4.10;2.55;;;16.80;99.90;;;;;;2630078;54;20137;-75
2021/09/16 07:23:15;;;;;;;5.20;1.52;;;17.00;99.90;;;;;;2631128;39;20412;-75
2021/09/16 07:25:44;;;;;;;2.83;1.08;;;17.20;99.90;;;;;;2630582;54;20157;-78
2021/09/16 07:28:13;;;;;;;4.60;1.40;;;17.20;99.90;;;;;;2630420;46;20711;-78
2021/09/16 07:30:42;;;;;;;3.90;1.38;;;17.40;99.90;;;;;;2628096;47;20205;-75
2021/09/16 07:33:11;;;;;;;1.98;1.20;;;17.40;99.90;;;;;;2626902;46;20192;-77
2021/09/16 07:35:40;;;;;;;5.65;1.90;;;17.10;99.90;;;;;;2630454;46;20192;-77
2021/09/16 07:38:11;;;;;;;1.67;1.42;;;16.90;99.90;;;;;;2629491;54;20180;-77
2021/09/16 07:40:40;;;;;;;3.50;1.17;;;17.00;99.90;;;;;;2629675;54;20129;-78
2021/09/16 07:43:10;;;;;;;5.45;1.58;;;16.80;99.90;;;;;;2625279;54;20268;-76
2021/09/16 07:45:41;;;;;;;1.77;1.30;;;16.80;99.90;;;;;;2624542;54;20148;-76
2021/09/16 07:48:10;;;;;;;2.65;1.20;;;16.90;99.90;;;;;;2626349;54;20173;-77
2021/09/16 07:50:40;;;;;;;4.10;1.42;;;16.80;99.90;;;;;;2623658;54;20145;-77
2021/09/16 07:53:11;;;;;;;3.75;1.35;;;17.00;99.90;;;;;;2624246;54;20725;-76
2021/09/16 07:55:45;;;;;;;0.80;0.80;;;17.20;99.90;;;;;;2624277;47;20164;-76
2021/09/16 07:58:14;;;;;;;2.85;1.05;;;17.20;99.90;;;;;;2624154;47;20312;-76
2021/09/16 08:00:43;;;;;;;1.85;1.15;;;17.30;99.90;;;;;;2626037;47;20153;-77
2021/09/16 08:03:12;;;;;;;5.80;1.45;;;17.30;99.90;;;;;;2626218;54;20145;-75
2021/09/16 08:05:40;;;;;;;4.32;1.45;;;17.10;99.90;;;;;;2624817;54;20668;-77
2021/09/16 08:08:12;;;;;;;4.55;1.50;;;17.10;99.90;;;;;;2626091;47;20236;-76
2021/09/16 08:10:41;;;;;;;5.18;2.25;;;17.10;99.90;;;;;;2627680;47;20192;-76
2021/09/16 08:13:10;;;;;;;6.78;1.63;;;17.00;99.90;;;;;;2626203;54;20199;-78
2021/09/16 08:15:48;;;;;;;4.60;1.90;;;17.00;99.90;;;;;;2624908;47;20217;-77
2021/09/16 08:18:17;;;;;;;3.53;1.38;;;17.10;99.90;;;;;;2626829;47;20161;-76
2021/09/16 08:20:48;;;;;;;4.32;1.88;;;17.20;99.90;;;;;;2625012;47;20157;-78
2021/09/16 08:23:22;;;;;;;3.38;1.75;;;16.90;99.90;;;;;;2630046;54;20155;-77
2021/09/16 08:25:51;;;;;;;5.63;1.80;;;16.60;99.90;;;;;;2630701;47;20157;-78
2021/09/16 08:28:21;;;;;;;5.15;1.83;;;16.80;99.90;;;;;;2630850;54;20199;-79
2021/09/16 08:30:50;;;;;;;7.22;2.65;;;16.60;99.90;;;;;;2631012;46;20201;-78
2021/09/16 08:33:19;;;;;;;3.80;2.13;;;16.50;99.90;;;;;;2630620;54;20149;-79
2021/09/16 08:35:48;;;;;;;5.45;1.95;;;16.50;99.90;;;;;;2630788;54;20169;-77
2021/09/16 08:38:20;;;;;;;1.50;1.40;;;16.30;99.90;;;;;;2630667;54;20292;-77
2021/09/16 08:40:49;;;;;;;2.33;1.63;;;16.30;99.90;;;;;;2630806;46;20126;-76
2021/09/16 08:43:21;;;;;;;8.82;1.50;;;16.50;99.90;;;;;;2633568;39;20596;-78
2021/09/16 08:45:51;;;;;;;2.58;1.73;;;16.60;99.90;;;;;;2630808;46;20145;-78
2021/09/16 08:48:21;;;;;;;5.72;2.00;;;16.50;99.90;;;;;;2630468;54;20177;-80
2021/09/16 08:50:50;;;;;;;2.38;1.83;;;16.50;99.90;;;;;;2633110;46;20221;-79
2021/09/16 08:53:24;;;;;;;1.90;1.30;;;16.70;99.90;;;;;;2630041;47;20137;-77
2021/09/16 08:55:55;;;;;;;1.92;1.55;;;16.90;99.90;;;;;;2629556;54;20164;-78
2021/09/16 08:58:30;;;;;;;1.40;1.30;;;16.90;99.90;;;;;;2629983;47;20165;-77
2021/09/16 09:00:59;;;;;;;2.38;1.42;;;17.10;99.90;;;;;;2629571;54;20160;-77
2021/09/16 09:03:28;;;;;;;3.08;1.80;;;17.30;99.90;;;;;;2629381;47;20714;-76
2021/09/16 09:05:57;;;;;;;3.42;1.75;;;17.20;99.90;;;;;;2623690;47;20164;-75
2021/09/16 09:08:29;;;;;;;5.75;1.70;;;17.10;99.90;;;;;;2627023;47;20180;-74
2021/09/16 09:11:03;;;;;;;2.50;1.27;;;17.10;99.90;;;;;;2624589;54;20149;-77
2021/09/16 09:13:41;;;;;;;2.88;2.05;;;17.10;99.90;;;;;;2625462;47;21123;-77
2021/09/16 09:16:12;;;;;;;3.45;2.20;;;17.20;99.90;;;;;;2626012;47;20149;-75
2021/09/16 09:18:46;;;;;;;4.20;1.88;;;17.20;99.90;;;;;;2623946;47;20187;-76
2021/09/16 09:21:17;;;;;;;4.10;1.77;;;17.20;99.90;;;;;;2622905;54;20145;-75
2021/09/16 09:23:54;;;;;;;2.00;1.80;;;17.20;99.90;;;;;;2622781;47;20156;-76
2021/09/16 09:26:26;;;;;;;2.20;2.00;;;17.20;99.90;;;;;;2623676;47;20161;-76
2021/09/16 09:28:57;;;;;;;2.47;2.28;;;17.40;99.90;;;;;;2621761;47;20268;-77
2021/09/16 09:31:28;;;;;;;3.10;2.47;;;17.50;99.90;;;;;;2624059;39;20804;-77
2021/09/16 09:33:57;;;;;;;2.17;1.90;;;17.50;99.90;;;;;;2622229;54;20160;-77
2021/09/16 09:36:27;;;;;;;4.68;2.03;;;17.50;99.90;;;;;;2621921;47;20308;-74
2021/09/16 09:39:06;;;;;;;2.97;2.78;;;17.70;99.90;;;;;;2622518;54;20165;-74
2021/09/16 09:41:37;;;;;;;5.95;3.15;;;17.80;99.90;;;;;;2622826;54;20149;-73
2021/09/16 09:44:10;;;;;;;2.92;2.15;;;17.60;99.90;;;;;;2622227;47;20695;-74
2021/09/16 09:46:41;;;;;;;4.53;2.30;;;17.40;99.90;;;;;;2620449;54;20265;-75
2021/09/16 09:49:12;;;;;;;7.30;3.00;;;17.60;99.90;;;;;;2621989;54;20149;-75
2021/09/16 09:51:43;;;;;;;2.72;2.42;;;17.70;99.90;;;;;;2621531;47;20170;-74
2021/09/16 09:54:20;;;;;;;5.80;2.63;;;17.90;99.90;;;;;;2619872;54;20763;-75
2021/09/16 09:57:06;;;;;;;3.08;2.78;;;18.10;99.90;;;;;;2628740;54;20184;-77
2021/09/16 10:00:07;;;;;;;3.83;2.50;;;18.20;99.90;;;;;;2629623;47;20165;-74
2021/09/16 10:02:50;;;;;;;6.95;2.60;;;18.10;99.90;;;;;;2628349;47;20149;-75
2021/09/16 10:05:26;;;;;;;4.57;2.53;;;18.20;99.90;;;;;;2629394;47;20145;-76
2021/09/16 10:07:56;;;;;;;3.60;2.65;;;18.00;99.90;;;;;;2627864;47;20223;-82
2021/09/16 10:10:38;;;;;;;5.13;3.28;;;17.90;99.90;;;;;;2631318;54;20137;-81
2021/09/16 10:13:07;;;;;;;4.47;2.95;;;18.10;99.90;;;;;;2629302;54;20204;-80
2021/09/16 10:15:37;;;;;;;4.15;3.08;;;18.00;99.90;;;;;;2631680;47;20172;-83
2021/09/16 10:18:14;;;;;;;4.10;3.33;;;18.10;99.90;;;;;;2628340;46;20458;-81
2021/09/16 10:26:37;;;;;;;5.50;3.65;;;18.40;99.90;;;;;;2631775;54;21407;-83
2021/09/16 10:29:09;;;;;;;3.42;2.95;;;18.50;99.90;;;;;;2628225;47;20200;-83
2021/09/16 10:31:52;;;;;;;6.80;3.92;;;18.90;99.90;;;;;;2627671;46;20220;-79
2021/09/16 10:40:01;;;;;;;4.22;3.22;;;19.30;99.90;;;;;;2622556;54;20268;-83
2021/09/16 10:48:28;;;;;;;5.85;2.90;;;19.30;99.90;;;;;;2612838;54;20204;31
2021/09/16 10:56:42;;;;;;;4.70;2.70;;;18.80;99.90;;;;;;2631071;54;20216;-82
2021/09/16 10:59:20;;;;;;;4.75;2.63;;;19.00;99.90;;;;;;2617544;54;20243;-80
2021/09/16 11:02:09;;;;;;;3.90;3.08;;;18.90;99.90;;;;;;2631543;54;20730;-80
2021/09/16 11:07:56;;;;;;;4.45;2.90;;;19.00;99.90;;;;;;2630546;54;21255;31
2021/09/16 11:11:12;;;;;;;5.10;2.67;;;19.00;99.90;;;;;;2628735;54;20200;-82
2021/09/16 11:19:13;;;;;;;4.68;3.17;;;19.10;99.90;;;;;;2631698;54;20169;-79
2021/09/16 11:21:51;;;;;;;4.05;3.13;;;19.20;99.90;;;;;;2631244;54;20204;-83
2021/09/16 11:24:33;;;;;;;5.95;2.97;;;19.20;99.90;;;;;;2677300;39;20575;-82
2021/09/16 11:27:12;;;;;;;6.43;3.30;;;19.20;99.90;;;;;;2626920;54;20216;-78
2021/09/16 11:29:50;;;;;;;4.57;2.78;;;19.00;99.90;;;;;;2630106;54;20200;-79
2021/09/16 11:38:00;;;;;;;3.67;2.65;;;19.10;99.90;;;;;;2630266;54;20201;-76
2021/09/16 11:40:40;;;;;;;9.77;3.20;;;19.00;99.90;;;;;;2630237;54;20200;-79
2021/09/16 11:48:44;;;;;;;4.27;2.37;;;18.70;99.90;;;;;;2626360;54;20196;31
2021/09/16 12:07:33;;;;;;;4.07;2.63;;;18.90;99.90;;;;;;2630652;54;20192;-78
2021/09/16 12:10:25;;;;;;;;;;;;;;;;;;;;;
2021/09/16 12:13:04;;;;;;;8.70;3.33;;;18.90;99.90;;;;;;2631003;54;20145;-77
2021/09/16 12:15:41;;;;;;;5.07;2.58;;;18.60;99.90;;;;;;2635835;39;20655;-78
2021/09/16 12:18:19;;;;;;;4.50;2.50;;;18.60;99.90;;;;;;2631082;54;20126;-78
2021/09/16 12:20:57;;;;;;;4.38;2.85;;;18.70;99.90;;;;;;2634014;39;20654;-78
2021/09/16 12:23:42;;;;;;;6.07;2.88;;;18.70;99.90;;;;;;2630421;54;20130;-77
2021/09/16 12:26:22;;;;;;;4.72;3.00;;;18.90;99.90;;;;;;2630897;54;20172;-79
2021/09/16 12:29:02;;;;;;;8.23;3.25;;;19.00;99.90;;;;;;2630752;54;20149;-75
2021/09/16 12:31:42;;;;;;;3.92;2.80;;;19.00;99.90;;;;;;2631150;47;20134;-78
2021/09/16 12:34:21;;;;;;;6.50;2.75;;;18.80;99.90;;;;;;2630880;54;20158;-78
2021/09/16 12:37:00;;;;;;;3.80;2.78;;;19.00;99.90;;;;;;2630895;54;20149;-78
2021/09/16 12:39:48;;;;;;;4.57;2.75;;;19.10;99.90;;;;;;2631094;54;20168;-77
2021/09/16 12:42:28;;;;;;;3.25;2.13;;;19.10;99.90;;;;;;2631060;54;20150;-78
2021/09/16 12:45:10;;;;;;;3.08;2.60;;;19.20;99.90;;;;;;2642694;31;20828;-78
2021/09/16 12:47:49;;;;;;;4.13;3.03;;;19.10;99.90;;;;;;2631082;54;20145;-77
2021/09/16 12:50:19;;;;;;;4.70;2.80;;;19.20;99.90;;;;;;2631023;47;20152;-77
2021/09/16 12:53:00;;;;;;;5.65;2.47;;;19.40;99.90;;;;;;2630813;54;20149;-78
2021/09/16 12:55:40;;;;;;;4.68;2.42;;;19.70;99.90;;;;;;2630482;54;20145;-77
2021/09/16 12:58:18;;;;;;;3.15;2.42;;;19.90;99.90;;;;;;2626750;54;20242;-76
2021/09/16 13:01:04;;;;;;;3.30;2.30;;;19.70;99.90;;;;;;2629682;54;20159;-78
2021/09/16 13:03:41;;;;;;;3.30;2.55;;;19.80;99.90;;;;;;2629377;54;20164;-78
2021/09/16 13:06:19;;;;;;;3.42;2.40;;;19.50;99.90;;;;;;2628859;46;20165;-77
2021/09/16 13:08:56;;;;;;;3.88;2.85;;;19.40;99.90;;;;;;2627840;54;20160;-78
2021/09/16 13:11:36;;;;;;;3.25;2.17;;;19.40;99.90;;;;;;2629482;54;20145;-78
2021/09/16 13:14:15;;;;;;;3.88;2.67;;;19.40;99.90;;;;;;2629118;54;20157;-78
2021/09/16 13:16:52;;;;;;;4.22;2.30;;;19.60;99.90;;;;;;2628698;54;20191;-78
2021/09/16 13:19:30;;;;;;;3.20;2.28;;;19.70;99.90;;;;;;2628978;54;20134;-78
2021/09/16 13:22:08;;;;;;;3.55;2.50;;;19.60;99.90;;;;;;2629216;54;20152;-78
2021/09/16 13:24:45;;;;;;;6.75;2.40;;;19.90;99.90;;;;;;2629521;54;20157;-80
2021/09/16 13:27:25;;;;;;;3.80;2.72;;;19.80;99.90;;;;;;2629704;54;20145;-79
2021/09/16 13:30:03;;;;;;;3.97;2.92;;;19.80;99.90;;;;;;2630095;54;20133;-80
2021/09/16 13:32:42;;;;;;;3.40;2.78;;;19.60;99.90;;;;;;2629755;54;20157;-79
2021/09/16 13:35:20;;;;;;;7.47;2.65;;;19.70;99.90;;;;;;2629436;54;20145;-79
2021/09/16 13:37:57;;;;;;;5.25;2.67;;;20.00;99.90;;;;;;2629381;54;20466;-78
2021/09/16 13:40:36;;;;;;;2.17;1.98;;;20.10;99.90;;;;;;2629998;54;20175;-80
2021/09/16 13:43:16;;;;;;;5.18;2.55;;;20.60;99.90;;;;;;2629814;54;20171;-77
2021/09/16 13:45:53;;;;;;;3.13;2.25;;;21.20;99.90;;;;;;2630436;39;20671;-78
2021/09/16 13:48:31;;;;;;;3.47;2.45;;;21.30;99.90;;;;;;2630004;47;20152;-81
2021/09/16 13:51:08;;;;;;;1.98;1.75;;;21.30;99.90;;;;;;2627362;54;20145;-80
2021/09/16 13:53:46;;;;;;;5.43;2.42;;;20.80;99.90;;;;;;2635951;39;20515;-79
2021/09/16 13:56:23;;;;;;;5.68;2.88;;;20.40;99.90;;;;;;2629450;54;20162;-78
2021/09/16 13:59:03;;;;;;;6.28;2.80;;;19.90;99.90;;;;;;2628591;54;20165;-78
2021/09/16 14:01:41;;;;;;;3.95;2.15;;;19.90;99.90;;;;;;2628915;54;20687;-77
2021/09/16 14:04:18;;;;;;;3.05;2.72;;;19.70;99.90;;;;;;2629115;54;20802;-78
2021/09/16 14:06:56;;;;;;;4.00;2.92;;;19.90;99.90;;;;;;2629077;54;20754;-78
2021/09/16 14:09:33;;;;;;;4.88;2.63;;;20.10;99.90;;;;;;2628734;54;20157;-78
2021/09/16 14:12:11;;;;;;;2.97;2.20;;;20.00;99.90;;;;;;2629079;54;20153;-76